createdAt,value
2016-08-04T00:00:57.412Z,1003.46
2016-08-04T00:01:57.401Z,1003.49
2016-08-04T00:02:57.387Z,1003.5
2016-08-04T00:03:57.381Z,1003.5
2016-08-04T00:04:57.361Z,1003.51
2016-08-04T00:05:57.393Z,1003.54
2016-08-04T00:06:57.332Z,1003.53
2016-08-04T00:07:57.416Z,1003.51
2016-08-04T00:08:57.300Z,1003.51
2016-08-04T00:09:57.292Z,1003.51
2016-08-04T00:10:57.278Z,1003.49
2016-08-04T00:11:57.268Z,1003.45
2016-08-04T00:12:57.250Z,1003.48
2016-08-04T00:13:57.234Z,1003.46
2016-08-04T00:14:57.225Z,1003.45
2016-08-04T00:15:57.208Z,1003.42
2016-08-04T00:16:57.198Z,1003.43
2016-08-04T00:17:57.185Z,1003.45
2016-08-04T00:18:57.171Z,1003.43
2016-08-04T00:19:57.159Z,1003.45
2016-08-04T00:20:57.138Z,1003.46
2016-08-04T00:21:57.132Z,1003.48
2016-08-04T00:22:57.117Z,1003.5
2016-08-04T00:23:57.104Z,1003.48
2016-08-04T00:24:57.090Z,1003.46
2016-08-04T00:25:57.079Z,1003.44
2016-08-04T00:26:57.058Z,1003.43
2016-08-04T00:27:57.049Z,1003.48
2016-08-04T00:28:57.040Z,1003.48
2016-08-04T00:29:57.019Z,1003.43
2016-08-04T00:30:57.008Z,1003.42
2016-08-04T00:31:56.989Z,1003.44
2016-08-04T00:32:56.981Z,1003.44
2016-08-04T00:33:56.973Z,1003.43
2016-08-04T00:34:56.953Z,1003.48
2016-08-04T00:35:56.936Z,1003.47
2016-08-04T00:36:56.931Z,1003.47
2016-08-04T00:37:56.913Z,1003.54
2016-08-04T00:38:56.901Z,1003.52
2016-08-04T00:39:56.887Z,1003.51
2016-08-04T00:40:56.872Z,1003.53
2016-08-04T00:41:56.855Z,1003.55
2016-08-04T00:42:56.842Z,1003.57
2016-08-04T00:43:56.829Z,1003.57
2016-08-04T00:44:56.812Z,1003.57
2016-08-04T00:45:56.803Z,1003.54
2016-08-04T00:46:56.791Z,1003.59
2016-08-04T00:47:56.775Z,1003.53
2016-08-04T00:48:56.760Z,1003.55
2016-08-04T00:49:56.756Z,1003.6
2016-08-04T00:50:56.731Z,1003.6
2016-08-04T00:51:56.718Z,1003.52
2016-08-04T00:52:56.707Z,1003.53
2016-08-04T00:53:56.692Z,1003.49
2016-08-04T00:54:56.680Z,1003.45
2016-08-04T00:55:56.669Z,1003.47
2016-08-04T00:56:56.652Z,1003.45
2016-08-04T00:57:56.640Z,1003.42
2016-08-04T00:58:56.624Z,1003.38
2016-08-04T00:59:56.609Z,1003.37
2016-08-04T01:00:56.597Z,1003.35
2016-08-04T01:01:56.589Z,1003.4
2016-08-04T01:02:56.573Z,1003.37
2016-08-04T01:03:56.563Z,1003.36
2016-08-04T01:04:56.542Z,1003.38
2016-08-04T01:05:56.526Z,1003.37
2016-08-04T01:06:56.512Z,1003.35
2016-08-04T01:07:56.502Z,1003.38
2016-08-04T01:08:56.490Z,1003.39
2016-08-04T01:09:56.481Z,1003.39
2016-08-04T01:10:56.458Z,1003.39
2016-08-04T01:11:56.451Z,1003.41
2016-08-04T01:12:56.432Z,1003.39
2016-08-04T01:13:56.418Z,1003.4
2016-08-04T01:14:56.411Z,1003.39
2016-08-04T01:15:56.391Z,1003.37
2016-08-04T01:16:56.373Z,1003.36
2016-08-04T01:17:56.366Z,1003.38
2016-08-04T01:18:56.357Z,1003.44
2016-08-04T01:19:56.339Z,1003.47
2016-08-04T01:20:56.321Z,1003.44
2016-08-04T01:21:56.312Z,1003.42
2016-08-04T01:22:56.291Z,1003.43
2016-08-04T01:23:56.281Z,1003.36
2016-08-04T01:24:56.270Z,1003.35
2016-08-04T01:25:56.260Z,1003.36
2016-08-04T01:26:56.240Z,1003.32
2016-08-04T01:27:56.228Z,1003.36
2016-08-04T01:28:56.211Z,1003.32
2016-08-04T01:29:56.195Z,1003.29
2016-08-04T01:30:56.186Z,1003.28
2016-08-04T01:31:56.169Z,1003.25
2016-08-04T01:32:56.154Z,1003.27
2016-08-04T01:33:56.143Z,1003.28
2016-08-04T01:35:56.120Z,1003.31
2016-08-04T01:36:56.100Z,1003.29
2016-08-04T01:37:56.091Z,1003.34
2016-08-04T01:38:56.073Z,1003.33
2016-08-04T01:39:56.061Z,1003.31
2016-08-04T01:40:56.043Z,1003.32
2016-08-04T01:41:56.032Z,1003.32
2016-08-04T01:42:56.019Z,1003.35
2016-08-04T01:43:55.999Z,1003.38
2016-08-04T01:44:55.992Z,1003.35
2016-08-04T01:45:55.979Z,1003.33
2016-08-04T01:46:55.959Z,1003.39
2016-08-04T01:47:55.947Z,1003.36
2016-08-04T01:48:55.936Z,1003.45
2016-08-04T01:50:55.914Z,1003.43
2016-08-04T01:51:55.890Z,1003.39
2016-08-04T01:52:55.878Z,1003.39
2016-08-04T01:53:55.872Z,1003.28
2016-08-04T01:54:55.856Z,1003.3
2016-08-04T01:55:55.839Z,1003.28
2016-08-04T01:56:55.822Z,1003.29
2016-08-04T01:57:55.809Z,1003.31
2016-08-04T01:58:55.795Z,1003.34
2016-08-04T01:59:55.779Z,1003.31
2016-08-04T02:00:55.771Z,1003.37
2016-08-04T02:01:55.753Z,1003.31
2016-08-04T02:02:55.742Z,1003.33
2016-08-04T02:03:55.723Z,1003.31
2016-08-04T02:04:55.711Z,1003.31
2016-08-04T02:05:55.696Z,1003.31
2016-08-04T02:06:55.683Z,1003.31
2016-08-04T02:07:55.673Z,1003.28
2016-08-04T02:08:55.653Z,1003.25
2016-08-04T02:09:55.643Z,1003.27
2016-08-04T02:10:55.632Z,1003.3
2016-08-04T02:11:55.611Z,1003.28
2016-08-04T02:12:55.602Z,1003.28
2016-08-04T02:13:55.583Z,1003.24
2016-08-04T02:14:55.567Z,1003.22
2016-08-04T02:15:55.562Z,1003.26
2016-08-04T02:16:55.540Z,1003.22
2016-08-04T02:17:55.528Z,1003.21
2016-08-04T02:18:55.513Z,1003.2
2016-08-04T02:19:55.503Z,1003.21
2016-08-04T02:20:55.489Z,1003.21
2016-08-04T02:21:55.470Z,1003.24
2016-08-04T02:22:55.461Z,1003.25
2016-08-04T02:23:55.444Z,1003.3
2016-08-04T02:24:55.432Z,1003.21
2016-08-04T02:25:55.421Z,1003.17
2016-08-04T02:26:55.405Z,1003.2
2016-08-04T02:27:55.389Z,1003.25
2016-08-04T02:28:55.376Z,1003.24
2016-08-04T02:29:55.359Z,1003.22
2016-08-04T02:30:55.349Z,1003.14
2016-08-04T02:31:55.337Z,1003.18
2016-08-04T02:32:55.330Z,1003.12
2016-08-04T02:33:55.306Z,1003.15
2016-08-04T02:34:55.289Z,1003.17
2016-08-04T02:35:55.280Z,1003.17
2016-08-04T02:36:55.259Z,1003.17
2016-08-04T02:37:55.246Z,1003.14
2016-08-04T02:38:55.240Z,1003.07
2016-08-04T02:39:55.219Z,1003.04
2016-08-04T02:40:55.209Z,1003.06
2016-08-04T02:41:55.192Z,1003.06
2016-08-04T02:42:55.176Z,1003.02
2016-08-04T02:43:55.169Z,1003.09
2016-08-04T02:44:55.148Z,1003.11
2016-08-04T02:45:55.138Z,1003.12
2016-08-04T02:46:55.130Z,1003.13
2016-08-04T02:47:55.110Z,1003.11
2016-08-04T02:48:55.091Z,1003.12
2016-08-04T02:49:55.105Z,1003.07
2016-08-04T02:50:55.067Z,1003.14
2016-08-04T02:51:55.057Z,1003.06
2016-08-04T02:52:55.041Z,1003.08
2016-08-04T02:53:55.027Z,1003.1
2016-08-04T02:54:55.012Z,1003.08
2016-08-04T02:55:54.995Z,1003.08
2016-08-04T02:56:54.978Z,1003.05
2016-08-04T02:57:54.971Z,1003.05
2016-08-04T02:58:54.957Z,1003.05
2016-08-04T02:59:54.939Z,1003.04
2016-08-04T03:00:54.923Z,1003.01
2016-08-04T03:01:54.911Z,1003.02
2016-08-04T03:02:54.902Z,1003.01
2016-08-04T03:03:54.886Z,1003.03
2016-08-04T03:04:54.868Z,1003.05
2016-08-04T03:05:54.852Z,1003.07
2016-08-04T03:06:54.842Z,1003.11
2016-08-04T03:07:54.827Z,1003.11
2016-08-04T03:08:54.811Z,1003.11
2016-08-04T03:09:54.798Z,1003.11
2016-08-04T03:10:54.783Z,1003.13
2016-08-04T03:11:54.772Z,1003.14
2016-08-04T03:12:54.757Z,1003.12
2016-08-04T03:13:54.740Z,1003.16
2016-08-04T03:14:54.728Z,1003.11
2016-08-04T03:15:54.711Z,1003.12
2016-08-04T03:16:54.701Z,1003.09
2016-08-04T03:17:54.688Z,1003.08
2016-08-04T03:18:54.670Z,1003.1
2016-08-04T03:19:54.657Z,1003.12
2016-08-04T03:20:54.642Z,1003.08
2016-08-04T03:21:54.631Z,1003.15
2016-08-04T03:22:54.623Z,1003.12
2016-08-04T03:23:54.607Z,1003.1
2016-08-04T03:24:54.585Z,1003.14
2016-08-04T03:25:54.577Z,1003.11
2016-08-04T03:26:54.552Z,1003.11
2016-08-04T03:27:54.545Z,1003.11
2016-08-04T03:28:54.532Z,1003.09
2016-08-04T03:29:54.512Z,1003.05
2016-08-04T03:30:54.498Z,1003.07
2016-08-04T03:31:54.483Z,1003.09
2016-08-04T03:32:54.468Z,1003.12
2016-08-04T03:33:54.460Z,1003.14
2016-08-04T03:34:54.439Z,1003.14
2016-08-04T03:35:54.428Z,1003.12
2016-08-04T03:36:54.411Z,1003.09
2016-08-04T03:37:54.397Z,1003.11
2016-08-04T03:38:54.384Z,1003.06
2016-08-04T03:39:54.370Z,1003.16
2016-08-04T03:40:54.357Z,1003.18
2016-08-04T03:41:54.343Z,1003.19
2016-08-04T03:42:54.325Z,1003.18
2016-08-04T03:43:54.310Z,1003.17
2016-08-04T03:44:54.300Z,1003.18
2016-08-04T03:45:54.287Z,1003.2
2016-08-04T03:46:54.271Z,1003.18
2016-08-04T03:47:54.259Z,1003.17
2016-08-04T03:48:54.238Z,1003.23
2016-08-04T03:49:54.231Z,1003.27
2016-08-04T03:50:54.211Z,1003.22
2016-08-04T03:51:54.201Z,1003.27
2016-08-04T03:52:54.187Z,1003.25
2016-08-04T03:53:54.171Z,1003.26
2016-08-04T03:54:54.160Z,1003.26
2016-08-04T03:55:54.139Z,1003.27
2016-08-04T03:56:54.131Z,1003.25
2016-08-04T03:57:54.115Z,1003.25
2016-08-04T03:58:54.098Z,1003.2
2016-08-04T03:59:54.079Z,1003.18
2016-08-04T04:00:54.071Z,1003.19
2016-08-04T04:01:54.061Z,1003.19
2016-08-04T04:02:54.041Z,1003.22
2016-08-04T04:03:54.030Z,1003.24
2016-08-04T04:04:54.011Z,1003.2
2016-08-04T04:05:54.001Z,1003.22
2016-08-04T04:06:53.987Z,1003.2
2016-08-04T04:07:53.966Z,1003.15
2016-08-04T04:08:53.955Z,1003.15
2016-08-04T04:09:53.940Z,1003.13
2016-08-04T04:10:53.925Z,1003.16
2016-08-04T04:11:53.918Z,1003.21
2016-08-04T04:12:53.898Z,1003.22
2016-08-04T04:13:53.890Z,1003.23
2016-08-04T04:14:53.870Z,1003.22
2016-08-04T04:15:53.857Z,1003.22
2016-08-04T04:16:53.919Z,1003.23
2016-08-04T04:17:53.830Z,1003.26
2016-08-04T04:18:53.814Z,1003.25
2016-08-04T04:19:53.801Z,1003.25
2016-08-04T04:20:53.790Z,1003.27
2016-08-04T04:21:53.771Z,1003.26
2016-08-04T04:22:53.758Z,1003.26
2016-08-04T04:23:53.751Z,1003.3
2016-08-04T04:24:53.735Z,1003.26
2016-08-04T04:25:53.721Z,1003.3
2016-08-04T04:26:53.705Z,1003.29
2016-08-04T04:27:53.691Z,1003.33
2016-08-04T04:28:53.673Z,1003.29
2016-08-04T04:29:53.660Z,1003.29
2016-08-04T04:30:53.647Z,1003.27
2016-08-04T04:31:53.631Z,1003.27
2016-08-04T04:32:53.617Z,1003.22
2016-08-04T04:33:53.600Z,1003.24
2016-08-04T04:34:53.589Z,1003.22
2016-08-04T04:35:53.579Z,1003.22
2016-08-04T04:36:53.560Z,1003.2
2016-08-04T04:37:53.546Z,1003.17
2016-08-04T04:38:53.535Z,1003.21
2016-08-04T04:39:53.521Z,1003.21
2016-08-04T04:40:53.510Z,1003.21
2016-08-04T04:41:53.488Z,1003.18
2016-08-04T04:42:53.476Z,1003.21
2016-08-04T04:43:53.461Z,1003.22
2016-08-04T04:44:53.444Z,1003.19
2016-08-04T04:45:53.438Z,1003.18
2016-08-04T04:46:53.414Z,1003.21
2016-08-04T04:47:53.403Z,1003.22
2016-08-04T04:48:53.387Z,1003.15
2016-08-04T04:49:53.382Z,1003.16
2016-08-04T04:50:53.360Z,1003.15
2016-08-04T04:51:53.344Z,1003.16
2016-08-04T04:52:53.332Z,1003.15
2016-08-04T04:53:53.319Z,1003.18
2016-08-04T04:54:53.304Z,1003.17
2016-08-04T04:55:53.291Z,1003.2
2016-08-04T04:56:53.292Z,1003.21
2016-08-04T04:57:53.261Z,1003.17
2016-08-04T04:58:53.246Z,1003.19
2016-08-04T04:59:53.232Z,1003.19
2016-08-04T05:00:53.215Z,1003.25
2016-08-04T05:01:53.209Z,1003.26
2016-08-04T05:02:53.194Z,1003.24
2016-08-04T05:03:53.182Z,1003.27
2016-08-04T05:04:53.161Z,1003.27
2016-08-04T05:06:53.134Z,1003.27
2016-08-04T05:07:53.121Z,1003.21
2016-08-04T05:08:53.106Z,1003.26
2016-08-04T05:09:53.089Z,1003.27
2016-08-04T05:10:53.080Z,1003.3
2016-08-04T05:11:53.059Z,1003.29
2016-08-04T05:12:53.049Z,1003.28
2016-08-04T05:13:53.044Z,1003.32
2016-08-04T05:14:53.022Z,1003.31
2016-08-04T05:15:53.009Z,1003.32
2016-08-04T05:16:52.989Z,1003.35
2016-08-04T05:17:52.979Z,1003.38
2016-08-04T05:18:52.959Z,1003.38
2016-08-04T05:19:52.952Z,1003.34
2016-08-04T05:21:52.917Z,1003.37
2016-08-04T05:22:52.901Z,1003.35
2016-08-04T05:23:52.890Z,1003.38
2016-08-04T05:24:52.880Z,1003.38
2016-08-04T05:25:52.865Z,1003.42
2016-08-04T05:26:52.852Z,1003.41
2016-08-04T05:27:52.831Z,1003.38
2016-08-04T05:28:52.818Z,1003.4
2016-08-04T05:29:52.808Z,1003.38
2016-08-04T05:30:52.786Z,1003.4
2016-08-04T05:31:52.776Z,1003.43
2016-08-04T05:32:52.757Z,1003.38
2016-08-04T05:33:52.750Z,1003.42
2016-08-04T05:34:52.747Z,1003.38
2016-08-04T05:35:52.720Z,1003.4
2016-08-04T05:36:52.711Z,1003.38
2016-08-04T05:37:52.690Z,1003.35
2016-08-04T05:38:52.680Z,1003.43
2016-08-04T05:39:52.665Z,1003.41
2016-08-04T05:40:52.648Z,1003.41
2016-08-04T05:41:52.634Z,1003.45
2016-08-04T05:42:52.625Z,1003.42
2016-08-04T05:43:52.604Z,1003.39
2016-08-04T05:44:52.590Z,1003.35
2016-08-04T05:45:52.580Z,1003.37
2016-08-04T05:46:52.563Z,1003.36
2016-08-04T05:47:52.549Z,1003.34
2016-08-04T05:48:52.535Z,1003.36
2016-08-04T05:49:52.528Z,1003.34
2016-08-04T05:50:52.510Z,1003.4
2016-08-04T05:51:52.500Z,1003.4
2016-08-04T05:52:52.478Z,1003.42
2016-08-04T05:53:52.471Z,1003.39
2016-08-04T05:54:52.459Z,1003.43
2016-08-04T05:55:52.439Z,1003.43
2016-08-04T05:56:52.427Z,1003.43
2016-08-04T05:57:52.413Z,1003.5
2016-08-04T05:58:52.400Z,1003.52
2016-08-04T05:59:52.386Z,1003.65
2016-08-04T06:00:52.379Z,1003.57
2016-08-04T06:01:52.359Z,1003.6
2016-08-04T06:02:52.348Z,1003.49
2016-08-04T06:03:52.338Z,1003.55
2016-08-04T06:04:52.318Z,1003.5
2016-08-04T06:05:52.304Z,1003.54
2016-08-04T06:06:52.288Z,1003.57
2016-08-04T06:07:52.281Z,1003.68
2016-08-04T06:08:52.267Z,1003.62
2016-08-04T06:09:52.259Z,1003.69
2016-08-04T06:10:52.239Z,1003.77
2016-08-04T06:11:52.226Z,1003.74
2016-08-04T06:12:52.218Z,1003.76
2016-08-04T06:13:52.214Z,1003.71
2016-08-04T06:14:52.191Z,1003.72
2016-08-04T06:15:52.179Z,1003.73
2016-08-04T06:16:52.161Z,1003.75
2016-08-04T06:17:52.151Z,1003.69
2016-08-04T06:18:52.141Z,1003.75
2016-08-04T06:19:52.120Z,1003.78
2016-08-04T06:20:52.108Z,1003.86
2016-08-04T06:21:52.098Z,1003.81
2016-08-04T06:22:52.076Z,1003.79
2016-08-04T06:23:52.069Z,1003.77
2016-08-04T06:24:52.060Z,1003.77
2016-08-04T06:25:52.036Z,1003.7
2016-08-04T06:26:52.031Z,1003.67
2016-08-04T06:27:52.020Z,1003.7
2016-08-04T06:28:52.001Z,1003.65
2016-08-04T06:29:51.990Z,1003.63
2016-08-04T06:30:51.973Z,1003.73
2016-08-04T06:31:51.960Z,1003.66
2016-08-04T06:32:51.946Z,1003.67
2016-08-04T06:33:51.938Z,1003.59
2016-08-04T06:34:51.931Z,1003.65
2016-08-04T06:35:51.905Z,1003.57
2016-08-04T06:36:51.890Z,1003.61
2016-08-04T06:37:51.878Z,1003.56
2016-08-04T06:38:51.872Z,1003.63
2016-08-04T06:39:51.853Z,1003.55
2016-08-04T06:40:51.841Z,1003.53
2016-08-04T06:41:51.830Z,1003.58
2016-08-04T06:42:51.814Z,1003.69
2016-08-04T06:43:51.799Z,1003.63
2016-08-04T06:44:51.785Z,1003.66
2016-08-04T06:45:51.778Z,1003.66
2016-08-04T06:46:51.758Z,1003.63
2016-08-04T06:47:51.747Z,1003.7
2016-08-04T06:48:51.739Z,1003.64
2016-08-04T06:49:51.725Z,1003.67
2016-08-04T06:50:51.708Z,1003.63
2016-08-04T06:51:51.703Z,1003.68
2016-08-04T06:52:51.685Z,1003.68
2016-08-04T06:53:51.681Z,1003.73
2016-08-04T06:54:51.660Z,1003.78
2016-08-04T06:55:51.642Z,1003.82
2016-08-04T06:56:51.641Z,1003.82
2016-08-04T06:57:51.619Z,1003.78
2016-08-04T06:58:51.604Z,1003.69
2016-08-04T06:59:51.598Z,1003.75
2016-08-04T07:00:51.578Z,1003.72
2016-08-04T07:01:51.567Z,1003.68
2016-08-04T07:02:51.560Z,1003.67
2016-08-04T07:03:51.551Z,1003.69
2016-08-04T07:04:51.531Z,1003.76
2016-08-04T07:05:51.519Z,1003.68
2016-08-04T07:06:51.502Z,1003.7
2016-08-04T07:07:51.492Z,1003.69
2016-08-04T07:08:51.481Z,1003.64
2016-08-04T07:09:51.472Z,1003.62
2016-08-04T07:10:51.461Z,1003.63
2016-08-04T07:11:51.441Z,1003.72
2016-08-04T07:12:51.432Z,1003.57
2016-08-04T07:13:51.419Z,1003.59
2016-08-04T07:14:51.448Z,1003.58
2016-08-04T07:15:51.391Z,1003.58
2016-08-04T07:16:51.379Z,1003.62
2016-08-04T07:17:51.368Z,1003.66
2016-08-04T07:18:51.359Z,1003.7
2016-08-04T07:19:51.339Z,1003.69
2016-08-04T07:20:51.333Z,1003.68
2016-08-04T07:21:51.312Z,1003.69
2016-08-04T07:22:51.302Z,1003.73
2016-08-04T07:23:51.288Z,1003.71
2016-08-04T07:24:51.278Z,1003.77
2016-08-04T07:25:51.268Z,1003.83
2016-08-04T07:26:51.296Z,1003.83
2016-08-04T07:27:51.241Z,1003.76
2016-08-04T07:28:51.231Z,1003.79
2016-08-04T07:29:51.212Z,1003.75
2016-08-04T07:30:51.205Z,1003.76
2016-08-04T07:31:51.192Z,1003.85
2016-08-04T07:32:51.174Z,1003.92
2016-08-04T07:33:51.161Z,1003.95
2016-08-04T07:34:51.150Z,1003.94
2016-08-04T07:35:51.137Z,1003.98
2016-08-04T07:36:51.126Z,1003.95
2016-08-04T07:37:51.107Z,1003.99
2016-08-04T07:38:51.095Z,1004.06
2016-08-04T07:39:51.087Z,1004.04
2016-08-04T07:40:51.078Z,1004.03
2016-08-04T07:41:51.058Z,1004.06
2016-08-04T07:42:51.050Z,1004.13
2016-08-04T07:43:51.030Z,1004.12
2016-08-04T07:44:51.032Z,1004.12
2016-08-04T07:45:51.009Z,1004.22
2016-08-04T07:46:50.999Z,1004.06
2016-08-04T07:47:50.990Z,1004.06
2016-08-04T07:48:50.972Z,1004.08
2016-08-04T07:49:50.965Z,1004.1
2016-08-04T07:50:50.947Z,1004.2
2016-08-04T07:51:50.940Z,1004.16
2016-08-04T07:52:51.162Z,1004.07
2016-08-04T07:53:50.913Z,1004.19
2016-08-04T07:54:50.899Z,1004.13
2016-08-04T07:55:50.890Z,1004.11
2016-08-04T07:56:50.876Z,1004.08
2016-08-04T07:57:50.864Z,1004.29
2016-08-04T07:58:50.853Z,1004.14
2016-08-04T07:59:50.841Z,1004.49
2016-08-04T08:00:50.824Z,1004.16
2016-08-04T08:01:50.820Z,1004.12
2016-08-04T08:02:50.808Z,1004.12
2016-08-04T08:03:50.802Z,1004.15
2016-08-04T08:04:50.777Z,1004.22
2016-08-04T08:05:50.770Z,1004.08
2016-08-04T08:06:50.758Z,1004.14
2016-08-04T08:07:50.749Z,1004.22
2016-08-04T08:08:50.741Z,1004.26
2016-08-04T08:09:50.731Z,1004.24
2016-08-04T08:10:50.709Z,1004.13
2016-08-04T08:11:50.710Z,1004.17
2016-08-04T08:12:50.700Z,1004.22
2016-08-04T08:13:50.689Z,1004.16
2016-08-04T08:14:50.676Z,1004.2
2016-08-04T08:15:50.663Z,1004.32
2016-08-04T08:16:50.654Z,1004.24
2016-08-04T08:17:50.645Z,1004.24
2016-08-04T08:18:50.628Z,1004.32
2016-08-04T08:19:50.624Z,1004.32
2016-08-04T08:20:50.616Z,1004.21
2016-08-04T08:21:50.601Z,1004.22
2016-08-04T08:22:50.587Z,1004.34
2016-08-04T08:23:50.579Z,1004.36
2016-08-04T08:24:50.570Z,1004.4
2016-08-04T08:25:50.608Z,1004.33
2016-08-04T08:26:50.551Z,1004.46
2016-08-04T08:27:50.539Z,1004.23
2016-08-04T08:28:50.529Z,1004.32
2016-08-04T08:29:50.520Z,1004.38
2016-08-04T08:30:50.513Z,1004.42
2016-08-04T08:31:50.503Z,1004.42
2016-08-04T08:32:50.499Z,1004.37
2016-08-04T08:33:50.488Z,1004.43
2016-08-04T08:34:50.485Z,1004.54
2016-08-04T08:35:50.468Z,1004.39
2016-08-04T08:36:50.462Z,1004.48
2016-08-04T08:37:50.448Z,1004.63
2016-08-04T08:38:50.442Z,1004.47
2016-08-04T08:39:50.441Z,1004.46
2016-08-04T08:40:50.427Z,1004.58
2016-08-04T08:41:50.419Z,1004.48
2016-08-04T08:42:50.419Z,1004.43
2016-08-04T08:43:50.420Z,1004.44
2016-08-04T08:44:50.401Z,1004.4
2016-08-04T08:45:50.392Z,1004.43
2016-08-04T08:46:50.388Z,1004.4
2016-08-04T08:47:50.377Z,1004.46
2016-08-04T08:48:50.367Z,1004.39
2016-08-04T08:49:50.363Z,1004.43
2016-08-04T08:50:50.353Z,1004.49
2016-08-04T08:51:50.341Z,1004.4
2016-08-04T08:52:50.333Z,1004.42
2016-08-04T08:53:50.330Z,1004.44
2016-08-04T08:54:50.315Z,1004.43
2016-08-04T08:55:50.308Z,1004.41
2016-08-04T08:56:50.312Z,1004.4
2016-08-04T08:57:50.290Z,1004.39
2016-08-04T08:58:50.280Z,1004.44
2016-08-04T08:59:50.270Z,1004.45
2016-08-04T09:00:50.257Z,1004.45
2016-08-04T09:01:50.253Z,1004.4
2016-08-04T09:02:50.244Z,1004.4
2016-08-04T09:03:50.237Z,1004.39
2016-08-04T09:04:50.227Z,1004.39
2016-08-04T09:05:50.219Z,1004.38
2016-08-04T09:06:50.207Z,1004.38
2016-08-04T09:07:50.202Z,1004.4
2016-08-04T09:08:50.203Z,1004.39
2016-08-04T09:09:50.172Z,1004.45
2016-08-04T09:10:50.167Z,1004.37
2016-08-04T09:11:50.158Z,1004.43
2016-08-04T09:12:50.148Z,1004.39
2016-08-04T09:13:50.140Z,1004.4
2016-08-04T09:14:50.139Z,1004.42
2016-08-04T09:15:50.120Z,1004.44
2016-08-04T09:16:50.109Z,1004.46
2016-08-04T09:17:50.106Z,1004.49
2016-08-04T09:18:50.098Z,1004.46
2016-08-04T09:19:50.085Z,1004.44
2016-08-04T09:20:50.075Z,1004.49
2016-08-04T09:21:50.065Z,1004.48
2016-08-04T09:22:50.060Z,1004.53
2016-08-04T09:23:50.051Z,1004.48
2016-08-04T09:24:50.045Z,1004.63
2016-08-04T09:25:50.039Z,1004.5
2016-08-04T09:26:50.029Z,1004.5
2016-08-04T09:27:50.019Z,1004.49
2016-08-04T09:28:50.015Z,1004.55
2016-08-04T09:29:50.003Z,1004.52
2016-08-04T09:30:49.998Z,1004.6
2016-08-04T09:31:49.990Z,1004.62
2016-08-04T09:32:49.983Z,1004.6
2016-08-04T09:33:49.990Z,1004.63
2016-08-04T09:34:49.963Z,1004.59
2016-08-04T09:35:49.959Z,1004.66
2016-08-04T09:37:49.948Z,1004.62
2016-08-04T09:38:49.937Z,1004.65
2016-08-04T09:39:49.934Z,1004.65
2016-08-04T09:40:49.928Z,1004.73
2016-08-04T09:41:49.919Z,1004.71
2016-08-04T09:42:49.912Z,1004.74
2016-08-04T09:43:49.911Z,1004.62
2016-08-04T09:44:49.898Z,1004.62
2016-08-04T09:45:49.965Z,1004.56
2016-08-04T09:46:49.882Z,1004.7
2016-08-04T09:47:49.934Z,1004.61
2016-08-04T09:48:49.868Z,1004.59
2016-08-04T09:49:49.866Z,1004.66
2016-08-04T09:50:49.859Z,1004.6
2016-08-04T09:52:49.842Z,1004.55
2016-08-04T09:53:49.837Z,1004.46
2016-08-04T09:54:49.830Z,1004.42
2016-08-04T09:55:49.822Z,1004.55
2016-08-04T09:56:49.811Z,1004.5
2016-08-04T09:57:49.809Z,1004.46
2016-08-04T09:58:49.797Z,1004.45
2016-08-04T09:59:49.791Z,1004.47
2016-08-04T10:00:49.789Z,1004.52
2016-08-04T10:01:49.777Z,1004.49
2016-08-04T10:02:49.766Z,1004.42
2016-08-04T10:03:49.756Z,1004.45
2016-08-04T10:04:49.749Z,1004.46
2016-08-04T10:05:49.743Z,1004.51
2016-08-04T10:06:49.734Z,1004.45
2016-08-04T10:07:49.728Z,1004.46
2016-08-04T10:08:49.716Z,1004.45
2016-08-04T10:09:49.712Z,1004.4
2016-08-04T10:10:49.701Z,1004.44
2016-08-04T10:11:49.688Z,1004.34
2016-08-04T10:12:49.682Z,1004.33
2016-08-04T10:13:49.671Z,1004.35
2016-08-04T10:14:49.668Z,1004.34
2016-08-04T10:15:49.659Z,1004.43
2016-08-04T10:16:49.651Z,1004.31
2016-08-04T10:17:49.635Z,1004.37
2016-08-04T10:18:49.628Z,1004.35
2016-08-04T10:19:49.618Z,1004.39
2016-08-04T10:20:49.609Z,1004.43
2016-08-04T10:21:49.601Z,1004.45
2016-08-04T10:22:49.597Z,1004.42
2016-08-04T10:23:49.582Z,1004.38
2016-08-04T10:24:49.573Z,1004.4
2016-08-04T10:25:49.568Z,1004.44
2016-08-04T10:26:49.557Z,1004.35
2016-08-04T10:27:49.550Z,1004.35
2016-08-04T10:28:49.609Z,1004.32
2016-08-04T10:29:49.529Z,1004.34
2016-08-04T10:30:49.520Z,1004.35
2016-08-04T10:31:49.508Z,1004.4
2016-08-04T10:32:49.501Z,1004.37
2016-08-04T10:33:49.491Z,1004.49
2016-08-04T10:34:49.486Z,1004.44
2016-08-04T10:35:49.481Z,1004.5
2016-08-04T10:36:49.469Z,1004.43
2016-08-04T10:37:49.458Z,1004.43
2016-08-04T10:38:49.493Z,1004.54
2016-08-04T10:39:49.433Z,1004.46
2016-08-04T10:40:49.425Z,1004.47
2016-08-04T10:41:49.416Z,1004.55
2016-08-04T10:42:49.405Z,1004.49
2016-08-04T10:43:49.398Z,1004.52
2016-08-04T10:44:49.391Z,1004.51
2016-08-04T10:45:49.386Z,1004.51
2016-08-04T10:46:49.368Z,1004.5
2016-08-04T10:47:49.358Z,1004.48
2016-08-04T10:48:49.356Z,1004.57
2016-08-04T10:49:49.340Z,1004.49
2016-08-04T10:50:49.339Z,1004.53
2016-08-04T10:51:49.320Z,1004.5
2016-08-04T10:52:49.322Z,1004.52
2016-08-04T10:53:49.309Z,1004.49
2016-08-04T10:54:49.300Z,1004.51
2016-08-04T10:55:49.290Z,1004.59
2016-08-04T10:56:49.280Z,1004.59
2016-08-04T10:57:49.269Z,1004.55
2016-08-04T10:58:49.261Z,1004.53
2016-08-04T10:59:49.251Z,1004.58
2016-08-04T11:00:49.238Z,1004.49
2016-08-04T11:01:49.226Z,1004.51
2016-08-04T11:02:49.217Z,1004.51
2016-08-04T11:03:49.220Z,1004.51
2016-08-04T11:04:49.201Z,1004.48
2016-08-04T11:05:49.192Z,1004.47
2016-08-04T11:06:49.187Z,1004.43
2016-08-04T11:07:49.182Z,1004.47
2016-08-04T11:08:49.180Z,1004.54
2016-08-04T11:09:49.158Z,1004.45
2016-08-04T11:10:49.150Z,1004.5
2016-08-04T11:11:49.142Z,1004.52
2016-08-04T11:12:49.121Z,1004.58
2016-08-04T11:13:49.121Z,1004.56
2016-08-04T11:14:49.110Z,1004.57
2016-08-04T11:15:49.100Z,1004.51
2016-08-04T11:16:49.092Z,1004.55
2016-08-04T11:17:49.075Z,1004.52
2016-08-04T11:18:49.081Z,1004.52
2016-08-04T11:19:49.056Z,1004.59
2016-08-04T11:20:49.052Z,1004.57
2016-08-04T11:21:49.035Z,1004.62
2016-08-04T11:22:49.031Z,1004.61
2016-08-04T11:23:49.019Z,1004.61
2016-08-04T11:24:49.009Z,1004.61
2016-08-04T11:25:48.998Z,1004.62
2016-08-04T11:26:48.989Z,1004.62
2016-08-04T11:27:48.979Z,1004.58
2016-08-04T11:28:48.967Z,1004.55
2016-08-04T11:29:48.973Z,1004.52
2016-08-04T11:30:48.950Z,1004.52
2016-08-04T11:31:48.939Z,1004.6
2016-08-04T11:32:48.929Z,1004.6
2016-08-04T11:33:48.922Z,1004.56
2016-08-04T11:34:48.908Z,1004.55
2016-08-04T11:35:48.897Z,1004.5
2016-08-04T11:36:48.889Z,1004.54
2016-08-04T11:37:48.880Z,1004.53
2016-08-04T11:38:48.874Z,1004.66
2016-08-04T11:39:48.860Z,1004.59
2016-08-04T11:40:48.848Z,1004.54
2016-08-04T11:41:48.842Z,1004.52
2016-08-04T11:42:48.828Z,1004.5
2016-08-04T11:43:48.818Z,1004.6
2016-08-04T11:44:48.810Z,1004.59
2016-08-04T11:45:48.801Z,1004.55
2016-08-04T11:46:48.788Z,1004.52
2016-08-04T11:47:48.775Z,1004.6
2016-08-04T11:48:48.764Z,1004.55
2016-08-04T11:49:48.752Z,1004.62
2016-08-04T11:50:48.749Z,1004.52
2016-08-04T11:51:48.739Z,1004.61
2016-08-04T11:52:48.721Z,1004.63
2016-08-04T11:53:48.710Z,1004.73
2016-08-04T11:54:48.701Z,1004.67
2016-08-04T11:55:48.690Z,1004.61
2016-08-04T11:56:48.682Z,1004.66
2016-08-04T11:57:48.673Z,1004.62
2016-08-04T11:58:48.660Z,1004.66
2016-08-04T11:59:48.648Z,1004.75
2016-08-04T12:00:48.641Z,1004.66
2016-08-04T12:01:48.628Z,1004.69
2016-08-04T12:02:48.620Z,1004.73
2016-08-04T12:03:48.606Z,1004.74
2016-08-04T12:04:48.600Z,1004.71
2016-08-04T12:05:48.591Z,1004.73
2016-08-04T12:06:48.572Z,1004.77
2016-08-04T12:07:48.563Z,1004.68
2016-08-04T12:08:48.551Z,1004.68
2016-08-04T12:09:48.542Z,1004.63
2016-08-04T12:10:48.530Z,1004.61
2016-08-04T12:11:48.519Z,1004.67
2016-08-04T12:12:48.512Z,1004.62
2016-08-04T12:13:48.507Z,1004.64